الصفحة الرئيسية
METAR-TAF:

METAR-TAF

مطار :

Proserpine, أستراليا

دائرة عرض: 20-29-42S, خط طول: 148-33-06E, ارتفاع: 25 متر

مراقبة الطقس الحالي

تاريخ ووقت الإصدار 53 دقيقة قبل الساعة 07:00UTC
ريح 10 عقدة من الشرق/الجنوب الشرقي
درجة الحرارة 26°درجة مئوية
الرطوبة 79%
ضغط 1012 hPa
الرؤية 10 كم أو أكثر
غيوم متفرقة على ارتفاع 7300 قدم
ملبد بالغيوم على ارتفاع 8800 قدم

METAR: YBPN 170700Z AUTO 12010KT 9999 // SCT073 OVC088 26/22 Q1012

زمن: 17:53 (07:53 UTC)


TAF: مفقودة

أرصاد الطقس والتوقعات من أكثر من 4000 مطار (تقارير الطقس للمطار METAR والتنبؤ بالطقس بالمطارTAF).

المحطات المتاحة هي النقط الصفراء والحمراء على الخريطة.

حرك المؤشر فوق النقطة لمعرفة اسم المحطة.

ثم انقر لمعرفة أرصاد وتوقعات الطقس.

لتغيير الخارطة: اضغط على الأزرار الخضراء مع رمز الصليب الأسود للتكبير. على الزر الأخضر مع شرطة للتصغير، أو على الأسهم الخضراء للخرائط المجاورة.


METAR-TAF: